Country
Station

 

Weather  for  Astoria, Astoria Regional Airport  -  United States    United States

  
12 °C (54 °F)
    
 
 

Current METAR for Astoria, Astoria Regional Airport is :

KAST 161155Z AUTO 00000KT 6SM -RA BR OVC024 12/11 A2980 RMK AO2 SLP089 P0007 60033 70033 T01170106 10128 20117 56013

 

This is a report for Astoria, Astoria Regional Airport - United States.
 
The report was made one hour and 13 minutes ago, at 11:55 UTC .
The wind was calm.
 
The temperature was 12 °C (54 °F), with a dew-point at 11 °C (52 °F).
The atmospheric pressure was 1009 hPa (29.80 inHg).
The relative humidity was 93.6%.
 
The sky was overcast from a height of 732 meter (2400 feet)
 
The overall visibility was 9.7 kilometers (6.0 miles).
 
Currently light rain plus mist.

 
 
 
 

Country :   A   B   C   D   E   F   G   H   I   J   K   L   M   N   O   P   Q   R   S   T   U   V   W   Y   Z

 

Site Info  |  Disclaimer  |  Credits  |  Privacy
Contact us  |  Add to favorites
© 2013-2019 METARs - All rights reserved